sensor_id;sensor_type;location;lat;lon;timestamp;temperature;humidity
62583;DHT22;48641;51.676;5.808;2023-02-15T00:01:54;13.70;62.50
62583;DHT22;48641;51.676;5.808;2023-02-15T00:04:22;13.70;62.50
62583;DHT22;48641;51.676;5.808;2023-02-15T00:06:49;13.70;62.50
62583;DHT22;48641;51.676;5.808;2023-02-15T00:09:15;13.70;62.50
62583;DHT22;48641;51.676;5.808;2023-02-15T00:11:41;13.70;62.50
62583;DHT22;48641;51.676;5.808;2023-02-15T00:14:20;13.70;62.50
62583;DHT22;48641;51.676;5.808;2023-02-15T00:16:47;13.70;62.40
62583;DHT22;48641;51.676;5.808;2023-02-15T00:19:15;13.70;62.40
62583;DHT22;48641;51.676;5.808;2023-02-15T00:21:40;13.70;62.40
62583;DHT22;48641;51.676;5.808;2023-02-15T00:24:08;13.70;62.30
62583;DHT22;48641;51.676;5.808;2023-02-15T00:26:34;13.70;62.40
62583;DHT22;48641;51.676;5.808;2023-02-15T00:29:00;13.70;62.30
62583;DHT22;48641;51.676;5.808;2023-02-15T00:31:29;13.70;62.30
62583;DHT22;48641;51.676;5.808;2023-02-15T00:34:00;13.70;62.30
62583;DHT22;48641;51.676;5.808;2023-02-15T00:36:25;13.70;62.40
62583;DHT22;48641;51.676;5.808;2023-02-15T00:38:51;13.60;62.30
62583;DHT22;48641;51.676;5.808;2023-02-15T00:41:17;13.60;62.20
62583;DHT22;48641;51.676;5.808;2023-02-15T00:43:42;13.70;62.30
62583;DHT22;48641;51.676;5.808;2023-02-15T00:46:08;13.60;62.30
62583;DHT22;48641;51.676;5.808;2023-02-15T00:48:33;13.60;62.30
62583;DHT22;48641;51.676;5.808;2023-02-15T00:51:00;13.60;62.30
62583;DHT22;48641;51.676;5.808;2023-02-15T00:53:27;13.60;62.30
62583;DHT22;48641;51.676;5.808;2023-02-15T00:55:53;13.60;62.30
62583;DHT22;48641;51.676;5.808;2023-02-15T00:58:19;13.60;62.20
62583;DHT22;48641;51.676;5.808;2023-02-15T01:00:46;13.60;62.20
62583;DHT22;48641;51.676;5.808;2023-02-15T01:03:13;13.60;62.30
62583;DHT22;48641;51.676;5.808;2023-02-15T01:05:39;13.60;62.20
62583;DHT22;48641;51.676;5.808;2023-02-15T01:08:05;13.60;62.20
62583;DHT22;48641;51.676;5.808;2023-02-15T01:10:31;13.60;62.20
62583;DHT22;48641;51.676;5.808;2023-02-15T01:12:58;13.60;62.20
62583;DHT22;48641;51.676;5.808;2023-02-15T01:15:24;13.60;62.20
62583;DHT22;48641;51.676;5.808;2023-02-15T01:17:49;13.60;62.20
62583;DHT22;48641;51.676;5.808;2023-02-15T01:20:26;13.60;62.20
62583;DHT22;48641;51.676;5.808;2023-02-15T01:22:53;13.60;62.20
62583;DHT22;48641;51.676;5.808;2023-02-15T01:25:20;13.60;62.10
62583;DHT22;48641;51.676;5.808;2023-02-15T01:27:46;13.60;62.20
62583;DHT22;48641;51.676;5.808;2023-02-15T01:30:13;13.60;62.20
62583;DHT22;48641;51.676;5.808;2023-02-15T01:32:40;13.50;62.20
62583;DHT22;48641;51.676;5.808;2023-02-15T01:35:06;13.50;62.20
62583;DHT22;48641;51.676;5.808;2023-02-15T01:37:32;13.50;62.20
62583;DHT22;48641;51.676;5.808;2023-02-15T01:39:58;13.50;62.10
62583;DHT22;48641;51.676;5.808;2023-02-15T01:42:26;13.50;62.00
62583;DHT22;48641;51.676;5.808;2023-02-15T01:44:59;13.50;62.00
62583;DHT22;48641;51.676;5.808;2023-02-15T01:48:37;13.50;62.00
62583;DHT22;48641;51.676;5.808;2023-02-15T01:50:44;13.50;62.00
62583;DHT22;48641;51.676;5.808;2023-02-15T01:53:21;13.50;62.00
62583;DHT22;48641;51.676;5.808;2023-02-15T01:56:08;13.50;62.00
62583;DHT22;48641;51.676;5.808;2023-02-15T01:58:36;13.40;62.00
62583;DHT22;48641;51.676;5.808;2023-02-15T02:01:04;13.40;62.00
62583;DHT22;48641;51.676;5.808;2023-02-15T02:06:24;13.40;62.00
62583;DHT22;48641;51.676;5.808;2023-02-15T02:08:49;13.40;62.00
62583;DHT22;48641;51.676;5.808;2023-02-15T02:11:15;13.30;62.90
62583;DHT22;48641;51.676;5.808;2023-02-15T02:13:43;13.30;61.90
62583;DHT22;48641;51.676;5.808;2023-02-15T02:18:58;13.30;61.90
62583;DHT22;48641;51.676;5.808;2023-02-15T02:27:29;13.30;61.80
62583;DHT22;48641;51.676;5.808;2023-02-15T02:36:02;13.30;61.90
62583;DHT22;48641;51.676;5.808;2023-02-15T02:38:52;13.30;61.90
62583;DHT22;48641;51.676;5.808;2023-02-15T02:44:18;13.20;61.90
62583;DHT22;48641;51.676;5.808;2023-02-15T02:46:54;13.20;61.90
62583;DHT22;48641;51.676;5.808;2023-02-15T02:49:39;13.20;61.90
62583;DHT22;48641;51.676;5.808;2023-02-15T02:55:01;13.20;61.80
62583;DHT22;48641;51.676;5.808;2023-02-15T02:57:27;13.20;61.90
62583;DHT22;48641;51.676;5.808;2023-02-15T02:59:54;13.20;61.90
62583;DHT22;48641;51.676;5.808;2023-02-15T03:02:25;13.20;61.80
62583;DHT22;48641;51.676;5.808;2023-02-15T03:05:00;13.30;61.80
62583;DHT22;48641;51.676;5.808;2023-02-15T03:07:30;13.20;61.70
62583;DHT22;48641;51.676;5.808;2023-02-15T03:10:00;13.20;61.80
62583;DHT22;48641;51.676;5.808;2023-02-15T03:12:33;13.20;61.70
62583;DHT22;48641;51.676;5.808;2023-02-15T03:17:34;13.20;61.70
62583;DHT22;48641;51.676;5.808;2023-02-15T03:20:14;13.20;61.70
62583;DHT22;48641;51.676;5.808;2023-02-15T03:22:51;13.20;61.70
62583;DHT22;48641;51.676;5.808;2023-02-15T03:25:38;13.20;61.70
62583;DHT22;48641;51.676;5.808;2023-02-15T03:28:15;13.20;61.60
62583;DHT22;48641;51.676;5.808;2023-02-15T03:30:44;13.20;61.70
62583;DHT22;48641;51.676;5.808;2023-02-15T03:33:11;13.20;61.70
62583;DHT22;48641;51.676;5.808;2023-02-15T03:36:01;13.20;61.70
62583;DHT22;48641;51.676;5.808;2023-02-15T03:38:44;13.20;61.60
62583;DHT22;48641;51.676;5.808;2023-02-15T03:41:14;13.20;61.70
62583;DHT22;48641;51.676;5.808;2023-02-15T03:43:57;13.20;61.70
62583;DHT22;48641;51.676;5.808;2023-02-15T03:47:11;13.20;61.70
62583;DHT22;48641;51.676;5.808;2023-02-15T03:49:22;13.20;61.70
62583;DHT22;48641;51.676;5.808;2023-02-15T03:51:51;13.10;61.70
62583;DHT22;48641;51.676;5.808;2023-02-15T03:57:02;13.10;61.70
62583;DHT22;48641;51.676;5.808;2023-02-15T03:59:47;13.10;61.70
62583;DHT22;48641;51.676;5.808;2023-02-15T04:02:41;13.10;61.60
62583;DHT22;48641;51.676;5.808;2023-02-15T04:05:08;13.10;61.60
62583;DHT22;48641;51.676;5.808;2023-02-15T04:07:33;13.10;61.60
62583;DHT22;48641;51.676;5.808;2023-02-15T04:09:59;13.10;61.70
62583;DHT22;48641;51.676;5.808;2023-02-15T04:12:43;13.10;61.60
62583;DHT22;48641;51.676;5.808;2023-02-15T04:15:12;13.10;61.60
62583;DHT22;48641;51.676;5.808;2023-02-15T04:17:56;13.10;61.60
62583;DHT22;48641;51.676;5.808;2023-02-15T04:20:22;13.10;61.60
62583;DHT22;48641;51.676;5.808;2023-02-15T04:23:07;13.10;61.60
62583;DHT22;48641;51.676;5.808;2023-02-15T04:25:51;13.10;61.70
62583;DHT22;48641;51.676;5.808;2023-02-15T04:28:16;13.10;61.60
62583;DHT22;48641;51.676;5.808;2023-02-15T04:30:42;13.10;61.60
62583;DHT22;48641;51.676;5.808;2023-02-15T04:33:07;13.10;61.60
62583;DHT22;48641;51.676;5.808;2023-02-15T04:35:33;13.10;61.50
62583;DHT22;48641;51.676;5.808;2023-02-15T04:37:59;13.10;61.50
62583;DHT22;48641;51.676;5.808;2023-02-15T04:40:24;13.10;61.50
62583;DHT22;48641;51.676;5.808;2023-02-15T04:42:50;13.10;61.60
62583;DHT22;48641;51.676;5.808;2023-02-15T04:45:16;13.10;61.40
62583;DHT22;48641;51.676;5.808;2023-02-15T04:47:42;13.10;61.50
62583;DHT22;48641;51.676;5.808;2023-02-15T04:50:08;13.10;61.40
62583;DHT22;48641;51.676;5.808;2023-02-15T04:52:34;13.10;61.40
62583;DHT22;48641;51.676;5.808;2023-02-15T04:54:59;13.10;61.40
62583;DHT22;48641;51.676;5.808;2023-02-15T04:57:25;13.10;62.30
62583;DHT22;48641;51.676;5.808;2023-02-15T04:59:50;13.10;61.40
62583;DHT22;48641;51.676;5.808;2023-02-15T05:02:16;13.10;61.40
62583;DHT22;48641;51.676;5.808;2023-02-15T05:04:42;13.10;61.30
62583;DHT22;48641;51.676;5.808;2023-02-15T05:07:07;13.10;61.30
62583;DHT22;48641;51.676;5.808;2023-02-15T05:09:33;13.10;61.30
62583;DHT22;48641;51.676;5.808;2023-02-15T05:11:58;13.10;61.30
62583;DHT22;48641;51.676;5.808;2023-02-15T05:14:27;13.10;61.20
62583;DHT22;48641;51.676;5.808;2023-02-15T05:16:52;13.10;61.30
62583;DHT22;48641;51.676;5.808;2023-02-15T05:19:19;13.00;61.30
62583;DHT22;48641;51.676;5.808;2023-02-15T05:21:45;13.00;61.20
62583;DHT22;48641;51.676;5.808;2023-02-15T05:24:10;13.10;61.30
62583;DHT22;48641;51.676;5.808;2023-02-15T05:26:55;13.10;61.20
62583;DHT22;48641;51.676;5.808;2023-02-15T05:29:39;13.00;61.30
62583;DHT22;48641;51.676;5.808;2023-02-15T05:32:05;13.00;61.30
62583;DHT22;48641;51.676;5.808;2023-02-15T05:34:30;13.00;61.30
62583;DHT22;48641;51.676;5.808;2023-02-15T05:36:56;13.00;61.30
62583;DHT22;48641;51.676;5.808;2023-02-15T05:39:21;13.00;62.20
62583;DHT22;48641;51.676;5.808;2023-02-15T05:41:47;13.00;61.30
62583;DHT22;48641;51.676;5.808;2023-02-15T05:44:12;13.00;61.30
62583;DHT22;48641;51.676;5.808;2023-02-15T05:46:38;13.00;61.30
62583;DHT22;48641;51.676;5.808;2023-02-15T05:49:04;13.00;61.20
62583;DHT22;48641;51.676;5.808;2023-02-15T05:51:29;13.00;61.20
62583;DHT22;48641;51.676;5.808;2023-02-15T05:53:55;13.00;61.20
62583;DHT22;48641;51.676;5.808;2023-02-15T05:56:20;13.00;61.20
62583;DHT22;48641;51.676;5.808;2023-02-15T05:58:46;13.00;61.20
62583;DHT22;48641;51.676;5.808;2023-02-15T06:01:17;13.00;61.30
62583;DHT22;48641;51.676;5.808;2023-02-15T06:03:44;13.00;61.20
62583;DHT22;48641;51.676;5.808;2023-02-15T06:06:09;12.90;61.20
62583;DHT22;48641;51.676;5.808;2023-02-15T06:08:36;12.90;61.20
62583;DHT22;48641;51.676;5.808;2023-02-15T06:11:02;12.90;61.20
62583;DHT22;48641;51.676;5.808;2023-02-15T06:13:28;12.90;61.20
62583;DHT22;48641;51.676;5.808;2023-02-15T06:15:53;12.90;61.10
62583;DHT22;48641;51.676;5.808;2023-02-15T06:18:19;12.90;61.10
62583;DHT22;48641;51.676;5.808;2023-02-15T06:20:48;12.90;61.20
62583;DHT22;48641;51.676;5.808;2023-02-15T06:23:14;12.90;61.10
62583;DHT22;48641;51.676;5.808;2023-02-15T06:25:40;12.90;61.10
62583;DHT22;48641;51.676;5.808;2023-02-15T06:28:06;12.90;61.20
62583;DHT22;48641;51.676;5.808;2023-02-15T06:30:32;12.90;61.10
62583;DHT22;48641;51.676;5.808;2023-02-15T06:32:58;12.90;61.10
62583;DHT22;48641;51.676;5.808;2023-02-15T06:35:23;12.90;62.10
62583;DHT22;48641;51.676;5.808;2023-02-15T06:37:49;12.90;61.10
62583;DHT22;48641;51.676;5.808;2023-02-15T06:40:15;12.90;61.10
62583;DHT22;48641;51.676;5.808;2023-02-15T06:42:41;12.90;61.10
62583;DHT22;48641;51.676;5.808;2023-02-15T06:45:08;12.90;61.20
62583;DHT22;48641;51.676;5.808;2023-02-15T06:47:33;12.90;61.10
62583;DHT22;48641;51.676;5.808;2023-02-15T06:49:59;12.90;61.10
62583;DHT22;48641;51.676;5.808;2023-02-15T06:52:25;12.90;61.10
62583;DHT22;48641;51.676;5.808;2023-02-15T06:54:51;12.90;61.20
62583;DHT22;48641;51.676;5.808;2023-02-15T06:57:16;12.90;61.20
62583;DHT22;48641;51.676;5.808;2023-02-15T06:59:42;12.90;61.10
62583;DHT22;48641;51.676;5.808;2023-02-15T07:02:12;12.90;61.10
62583;DHT22;48641;51.676;5.808;2023-02-15T07:04:41;12.90;61.10
62583;DHT22;48641;51.676;5.808;2023-02-15T07:07:10;12.90;61.20
62583;DHT22;48641;51.676;5.808;2023-02-15T07:09:37;12.80;61.10
62583;DHT22;48641;51.676;5.808;2023-02-15T07:12:03;12.80;61.20
62583;DHT22;48641;51.676;5.808;2023-02-15T07:14:47;12.80;61.20
62583;DHT22;48641;51.676;5.808;2023-02-15T07:17:13;12.80;61.20
62583;DHT22;48641;51.676;5.808;2023-02-15T07:19:38;12.80;61.30
62583;DHT22;48641;51.676;5.808;2023-02-15T07:22:04;12.80;61.50
62583;DHT22;48641;51.676;5.808;2023-02-15T07:24:30;12.80;61.70
62583;DHT22;48641;51.676;5.808;2023-02-15T07:26:56;12.80;61.90
62583;DHT22;48641;51.676;5.808;2023-02-15T07:29:23;12.80;62.00
62583;DHT22;48641;51.676;5.808;2023-02-15T07:31:49;12.90;62.10
62583;DHT22;48641;51.676;5.808;2023-02-15T07:34:15;12.90;62.10
62583;DHT22;48641;51.676;5.808;2023-02-15T07:36:41;12.90;62.10
62583;DHT22;48641;51.676;5.808;2023-02-15T07:39:07;13.00;62.10
62583;DHT22;48641;51.676;5.808;2023-02-15T07:41:33;13.10;62.10
62583;DHT22;48641;51.676;5.808;2023-02-15T07:43:58;13.10;62.10
62583;DHT22;48641;51.676;5.808;2023-02-15T07:46:24;13.20;62.10
62583;DHT22;48641;51.676;5.808;2023-02-15T07:48:49;13.30;62.10
62583;DHT22;48641;51.676;5.808;2023-02-15T07:51:15;13.30;62.00
62583;DHT22;48641;51.676;5.808;2023-02-15T07:53:41;13.40;62.00
62583;DHT22;48641;51.676;5.808;2023-02-15T07:56:10;13.40;62.00
62583;DHT22;48641;51.676;5.808;2023-02-15T07:58:36;13.50;62.00
62583;DHT22;48641;51.676;5.808;2023-02-15T08:01:29;13.50;61.90
62583;DHT22;48641;51.676;5.808;2023-02-15T08:03:55;13.50;62.20
62583;DHT22;48641;51.676;5.808;2023-02-15T08:06:23;13.50;62.10
62583;DHT22;48641;51.676;5.808;2023-02-15T08:08:49;13.60;62.10
62583;DHT22;48641;51.676;5.808;2023-02-15T08:11:30;13.60;61.90
62583;DHT22;48641;51.676;5.808;2023-02-15T08:14:11;13.60;61.90
62583;DHT22;48641;51.676;5.808;2023-02-15T08:16:45;13.70;61.90
62583;DHT22;48641;51.676;5.808;2023-02-15T08:24:17;13.70;61.80
62583;DHT22;48641;51.676;5.808;2023-02-15T08:26:43;13.70;61.70
62583;DHT22;48641;51.676;5.808;2023-02-15T08:29:12;13.70;61.70
62583;DHT22;48641;51.676;5.808;2023-02-15T08:31:39;13.70;61.70
62583;DHT22;48641;51.676;5.808;2023-02-15T08:34:08;13.70;61.70
62583;DHT22;48641;51.676;5.808;2023-02-15T08:36:34;13.60;61.70
62583;DHT22;48641;51.676;5.808;2023-02-15T08:39:02;13.60;61.70
62583;DHT22;48641;51.676;5.808;2023-02-15T08:41:31;13.70;61.70
62583;DHT22;48641;51.676;5.808;2023-02-15T08:43:58;13.70;62.60
62583;DHT22;48641;51.676;5.808;2023-02-15T08:46:26;13.70;61.70
62583;DHT22;48641;51.676;5.808;2023-02-15T08:48:52;13.70;62.10
62583;DHT22;48641;51.676;5.808;2023-02-15T08:51:29;13.70;61.80
62583;DHT22;48641;51.676;5.808;2023-02-15T08:53:58;13.70;61.70
62583;DHT22;48641;51.676;5.808;2023-02-15T08:56:26;13.70;61.60
62583;DHT22;48641;51.676;5.808;2023-02-15T08:58:53;13.70;61.80
62583;DHT22;48641;51.676;5.808;2023-02-15T09:01:22;13.80;61.60
62583;DHT22;48641;51.676;5.808;2023-02-15T09:03:50;13.80;61.60
62583;DHT22;48641;51.676;5.808;2023-02-15T09:06:19;13.80;61.50
62583;DHT22;48641;51.676;5.808;2023-02-15T09:08:45;13.80;61.50
62583;DHT22;48641;51.676;5.808;2023-02-15T09:11:13;13.80;61.30
62583;DHT22;48641;51.676;5.808;2023-02-15T09:13:39;13.80;61.30
62583;DHT22;48641;51.676;5.808;2023-02-15T09:16:07;13.80;61.20
62583;DHT22;48641;51.676;5.808;2023-02-15T09:18:36;13.80;61.20
62583;DHT22;48641;51.676;5.808;2023-02-15T09:21:11;13.80;61.10
62583;DHT22;48641;51.676;5.808;2023-02-15T09:23:39;13.80;61.00
62583;DHT22;48641;51.676;5.808;2023-02-15T09:26:08;13.80;61.10
62583;DHT22;48641;51.676;5.808;2023-02-15T09:28:34;13.80;61.10
62583;DHT22;48641;51.676;5.808;2023-02-15T09:33:34;13.70;61.00
62583;DHT22;48641;51.676;5.808;2023-02-15T09:36:00;13.70;61.00
62583;DHT22;48641;51.676;5.808;2023-02-15T09:38:26;13.70;60.90
62583;DHT22;48641;51.676;5.808;2023-02-15T09:44:04;13.70;60.80
62583;DHT22;48641;51.676;5.808;2023-02-15T10:00:26;13.50;61.00
62583;DHT22;48641;51.676;5.808;2023-02-15T10:08:32;13.40;61.00
62583;DHT22;48641;51.676;5.808;2023-02-15T10:20:21;13.40;62.00
62583;DHT22;48641;51.676;5.808;2023-02-15T10:23:29;13.40;61.60
62583;DHT22;48641;51.676;5.808;2023-02-15T10:26:22;13.40;61.50
62583;DHT22;48641;51.676;5.808;2023-02-15T10:29:07;13.40;61.80
62583;DHT22;48641;51.676;5.808;2023-02-15T10:31:50;13.40;62.00
62583;DHT22;48641;51.676;5.808;2023-02-15T10:34:26;13.40;62.20
62583;DHT22;48641;51.676;5.808;2023-02-15T10:39:49;13.40;62.30
62583;DHT22;48641;51.676;5.808;2023-02-15T10:48:16;13.60;62.20
62583;DHT22;48641;51.676;5.808;2023-02-15T10:50:51;13.60;62.00
62583;DHT22;48641;51.676;5.808;2023-02-15T10:53:48;13.60;61.70
62583;DHT22;48641;51.676;5.808;2023-02-15T11:02:08;13.70;62.70
62583;DHT22;48641;51.676;5.808;2023-02-15T11:04:51;13.70;62.70
62583;DHT22;48641;51.676;5.808;2023-02-15T11:07:25;13.80;62.90
62583;DHT22;48641;51.676;5.808;2023-02-15T11:10:00;13.80;63.20
62583;DHT22;48641;51.676;5.808;2023-02-15T11:12:29;13.90;63.80
62583;DHT22;48641;51.676;5.808;2023-02-15T11:15:01;14.00;63.80
62583;DHT22;48641;51.676;5.808;2023-02-15T11:17:35;14.00;64.20
62583;DHT22;48641;51.676;5.808;2023-02-15T11:20:37;14.10;64.50
62583;DHT22;48641;51.676;5.808;2023-02-15T11:23:13;14.10;64.60
62583;DHT22;48641;51.676;5.808;2023-02-15T11:25:43;14.20;64.50
62583;DHT22;48641;51.676;5.808;2023-02-15T11:28:19;14.20;64.60
62583;DHT22;48641;51.676;5.808;2023-02-15T11:30:51;14.20;64.50
62583;DHT22;48641;51.676;5.808;2023-02-15T11:33:41;14.30;64.50
62583;DHT22;48641;51.676;5.808;2023-02-15T11:36:41;14.30;64.80
62583;DHT22;48641;51.676;5.808;2023-02-15T11:39:12;14.30;64.70
62583;DHT22;48641;51.676;5.808;2023-02-15T11:41:43;14.40;65.00
62583;DHT22;48641;51.676;5.808;2023-02-15T11:44:23;14.40;64.60
62583;DHT22;48641;51.676;5.808;2023-02-15T11:46:52;14.40;64.60
62583;DHT22;48641;51.676;5.808;2023-02-15T11:49:35;14.50;64.70
62583;DHT22;48641;51.676;5.808;2023-02-15T11:52:05;14.50;64.40
62583;DHT22;48641;51.676;5.808;2023-02-15T11:54:35;14.50;64.40
62583;DHT22;48641;51.676;5.808;2023-02-15T11:57:14;14.50;64.30
62583;DHT22;48641;51.676;5.808;2023-02-15T11:59:43;14.60;64.40
62583;DHT22;48641;51.676;5.808;2023-02-15T12:02:22;14.60;64.20
62583;DHT22;48641;51.676;5.808;2023-02-15T12:05:12;14.60;63.90
62583;DHT22;48641;51.676;5.808;2023-02-15T12:07:57;14.60;63.80
62583;DHT22;48641;51.676;5.808;2023-02-15T12:10:28;14.60;63.50
62583;DHT22;48641;51.676;5.808;2023-02-15T12:13:14;14.60;63.50
62583;DHT22;48641;51.676;5.808;2023-02-15T12:15:49;14.60;63.30
62583;DHT22;48641;51.676;5.808;2023-02-15T12:21:05;14.60;63.10
62583;DHT22;48641;51.676;5.808;2023-02-15T12:23:33;14.60;63.10
62583;DHT22;48641;51.676;5.808;2023-02-15T12:25:59;14.60;63.00
62583;DHT22;48641;51.676;5.808;2023-02-15T12:28:31;14.60;62.90
62583;DHT22;48641;51.676;5.808;2023-02-15T12:30:58;14.60;62.80
62583;DHT22;48641;51.676;5.808;2023-02-15T12:33:35;14.60;62.70
62583;DHT22;48641;51.676;5.808;2023-02-15T12:41:44;14.60;62.70
62583;DHT22;48641;51.676;5.808;2023-02-15T12:44:19;14.60;62.40
62583;DHT22;48641;51.676;5.808;2023-02-15T12:47:02;14.60;62.40
62583;DHT22;48641;51.676;5.808;2023-02-15T12:49:33;14.60;62.30
62583;DHT22;48641;51.676;5.808;2023-02-15T12:52:02;14.70;62.50
62583;DHT22;48641;51.676;5.808;2023-02-15T12:54:30;14.70;62.50
62583;DHT22;48641;51.676;5.808;2023-02-15T12:56:57;14.60;62.40
62583;DHT22;48641;51.676;5.808;2023-02-15T12:59:22;14.60;62.70
62583;DHT22;48641;51.676;5.808;2023-02-15T13:01:49;14.60;62.70
62583;DHT22;48641;51.676;5.808;2023-02-15T13:04:21;14.70;62.70
62583;DHT22;48641;51.676;5.808;2023-02-15T13:06:50;14.60;62.70
62583;DHT22;48641;51.676;5.808;2023-02-15T13:09:37;14.70;62.60
62583;DHT22;48641;51.676;5.808;2023-02-15T13:12:16;14.70;62.60
62583;DHT22;48641;51.676;5.808;2023-02-15T13:14:48;14.70;62.60
62583;DHT22;48641;51.676;5.808;2023-02-15T13:17:18;14.70;62.60
62583;DHT22;48641;51.676;5.808;2023-02-15T13:19:50;14.70;62.60
62583;DHT22;48641;51.676;5.808;2023-02-15T13:22:21;14.70;62.50
62583;DHT22;48641;51.676;5.808;2023-02-15T13:24:58;14.70;62.50
62583;DHT22;48641;51.676;5.808;2023-02-15T13:27:35;14.70;62.40
62583;DHT22;48641;51.676;5.808;2023-02-15T13:30:10;14.70;62.40
62583;DHT22;48641;51.676;5.808;2023-02-15T13:32:39;14.70;62.40
62583;DHT22;48641;51.676;5.808;2023-02-15T13:35:14;14.70;62.40
62583;DHT22;48641;51.676;5.808;2023-02-15T13:40:38;14.80;62.40
62583;DHT22;48641;51.676;5.808;2023-02-15T13:45:53;14.70;62.50
62583;DHT22;48641;51.676;5.808;2023-02-15T13:51:39;14.70;62.60
62583;DHT22;48641;51.676;5.808;2023-02-15T13:59:51;14.70;62.70
62583;DHT22;48641;51.676;5.808;2023-02-15T14:08:04;14.70;62.60
62583;DHT22;48641;51.676;5.808;2023-02-15T14:10:57;14.70;62.60
62583;DHT22;48641;51.676;5.808;2023-02-15T14:21:31;14.60;62.70
62583;DHT22;48641;51.676;5.808;2023-02-15T14:26:41;14.60;62.70
62583;DHT22;48641;51.676;5.808;2023-02-15T14:29:32;14.60;62.70
62583;DHT22;48641;51.676;5.808;2023-02-15T14:32:10;14.70;62.80
62583;DHT22;48641;51.676;5.808;2023-02-15T14:34:48;14.60;62.80
62583;DHT22;48641;51.676;5.808;2023-02-15T14:37:22;14.60;62.80
62583;DHT22;48641;51.676;5.808;2023-02-15T14:42:53;14.60;62.90
62583;DHT22;48641;51.676;5.808;2023-02-15T14:48:04;14.50;62.90
62583;DHT22;48641;51.676;5.808;2023-02-15T14:50:44;14.60;62.90
62583;DHT22;48641;51.676;5.808;2023-02-15T14:55:47;14.60;62.90
62583;DHT22;48641;51.676;5.808;2023-02-15T14:58:29;14.60;62.90
62583;DHT22;48641;51.676;5.808;2023-02-15T15:01:06;14.60;62.90
62583;DHT22;48641;51.676;5.808;2023-02-15T15:03:34;14.60;62.80
62583;DHT22;48641;51.676;5.808;2023-02-15T15:06:02;14.50;62.80
62583;DHT22;48641;51.676;5.808;2023-02-15T15:08:36;14.60;62.80
62583;DHT22;48641;51.676;5.808;2023-02-15T15:13:55;14.60;62.70
62583;DHT22;48641;51.676;5.808;2023-02-15T15:19:04;14.60;62.80
62583;DHT22;48641;51.676;5.808;2023-02-15T15:30:46;14.50;62.90
62583;DHT22;48641;51.676;5.808;2023-02-15T15:50:18;14.50;63.20
62583;DHT22;48641;51.676;5.808;2023-02-15T15:52:57;14.50;63.30
62583;DHT22;48641;51.676;5.808;2023-02-15T15:55:26;14.50;63.30
62583;DHT22;48641;51.676;5.808;2023-02-15T15:57:55;14.50;63.40
62583;DHT22;48641;51.676;5.808;2023-02-15T16:03:35;14.50;63.30
62583;DHT22;48641;51.676;5.808;2023-02-15T16:06:01;14.50;63.30
62583;DHT22;48641;51.676;5.808;2023-02-15T16:10:52;14.40;63.30
62583;DHT22;48641;51.676;5.808;2023-02-15T16:13:18;14.40;63.30
62583;DHT22;48641;51.676;5.808;2023-02-15T16:15:45;14.40;63.30
62583;DHT22;48641;51.676;5.808;2023-02-15T16:18:16;14.50;63.40
62583;DHT22;48641;51.676;5.808;2023-02-15T16:20:55;14.50;63.30
62583;DHT22;48641;51.676;5.808;2023-02-15T16:23:33;14.50;63.30
62583;DHT22;48641;51.676;5.808;2023-02-15T16:26:35;14.50;63.30
62583;DHT22;48641;51.676;5.808;2023-02-15T16:29:16;14.50;63.20
62583;DHT22;48641;51.676;5.808;2023-02-15T16:31:43;14.50;63.30
62583;DHT22;48641;51.676;5.808;2023-02-15T16:34:21;14.50;63.30
62583;DHT22;48641;51.676;5.808;2023-02-15T16:36:46;14.50;64.30
62583;DHT22;48641;51.676;5.808;2023-02-15T16:39:21;14.50;63.40
62583;DHT22;48641;51.676;5.808;2023-02-15T16:41:47;14.50;64.50
62583;DHT22;48641;51.676;5.808;2023-02-15T16:44:19;14.50;64.20
62583;DHT22;48641;51.676;5.808;2023-02-15T16:46:48;14.50;63.80
62583;DHT22;48641;51.676;5.808;2023-02-15T16:49:17;14.50;63.60
62583;DHT22;48641;51.676;5.808;2023-02-15T16:51:44;14.50;63.60
62583;DHT22;48641;51.676;5.808;2023-02-15T16:54:17;14.40;63.60
62583;DHT22;48641;51.676;5.808;2023-02-15T16:56:44;14.50;63.60
62583;DHT22;48641;51.676;5.808;2023-02-15T17:01:53;14.50;63.60
62583;DHT22;48641;51.676;5.808;2023-02-15T17:07:06;14.40;63.50
62583;DHT22;48641;51.676;5.808;2023-02-15T17:09:33;14.50;63.50
62583;DHT22;48641;51.676;5.808;2023-02-15T17:12:00;14.50;63.50
62583;DHT22;48641;51.676;5.808;2023-02-15T17:14:29;14.40;63.50
62583;DHT22;48641;51.676;5.808;2023-02-15T17:17:06;14.50;63.50
62583;DHT22;48641;51.676;5.808;2023-02-15T17:19:51;14.40;63.40
62583;DHT22;48641;51.676;5.808;2023-02-15T17:22:24;14.50;63.40
62583;DHT22;48641;51.676;5.808;2023-02-15T17:24:58;14.40;63.50
62583;DHT22;48641;51.676;5.808;2023-02-15T17:27:27;14.40;63.40
62583;DHT22;48641;51.676;5.808;2023-02-15T17:30:03;14.40;63.40
62583;DHT22;48641;51.676;5.808;2023-02-15T17:32:31;14.40;63.40
62583;DHT22;48641;51.676;5.808;2023-02-15T17:39:59;14.40;63.40
62583;DHT22;48641;51.676;5.808;2023-02-15T17:42:25;14.40;63.40
62583;DHT22;48641;51.676;5.808;2023-02-15T17:44:51;14.40;63.70
62583;DHT22;48641;51.676;5.808;2023-02-15T17:47:20;14.40;63.60
62583;DHT22;48641;51.676;5.808;2023-02-15T17:49:46;14.40;63.50
62583;DHT22;48641;51.676;5.808;2023-02-15T17:52:15;14.40;63.50
62583;DHT22;48641;51.676;5.808;2023-02-15T17:54:42;14.40;63.50
62583;DHT22;48641;51.676;5.808;2023-02-15T17:57:27;14.30;63.50
62583;DHT22;48641;51.676;5.808;2023-02-15T17:59:53;14.40;63.60
62583;DHT22;48641;51.676;5.808;2023-02-15T18:02:38;14.40;63.60
62583;DHT22;48641;51.676;5.808;2023-02-15T18:05:22;14.40;63.50
62583;DHT22;48641;51.676;5.808;2023-02-15T18:08:15;14.30;63.50
62583;DHT22;48641;51.676;5.808;2023-02-15T18:11:00;14.30;63.50
62583;DHT22;48641;51.676;5.808;2023-02-15T18:13:45;14.30;63.50
62583;DHT22;48641;51.676;5.808;2023-02-15T18:16:22;14.30;63.50
62583;DHT22;48641;51.676;5.808;2023-02-15T18:18:48;14.30;63.50
62583;DHT22;48641;51.676;5.808;2023-02-15T18:21:14;14.30;63.40
62583;DHT22;48641;51.676;5.808;2023-02-15T18:23:41;14.30;63.40
62583;DHT22;48641;51.676;5.808;2023-02-15T18:26:09;14.30;63.40
62583;DHT22;48641;51.676;5.808;2023-02-15T18:28:37;14.30;63.40
62583;DHT22;48641;51.676;5.808;2023-02-15T18:31:03;14.30;63.30
62583;DHT22;48641;51.676;5.808;2023-02-15T18:33:43;14.30;63.30
62583;DHT22;48641;51.676;5.808;2023-02-15T18:36:39;14.30;63.20
62583;DHT22;48641;51.676;5.808;2023-02-15T18:41:54;14.30;63.40
62583;DHT22;48641;51.676;5.808;2023-02-15T18:44:20;14.20;63.50
62583;DHT22;48641;51.676;5.808;2023-02-15T18:46:45;14.30;63.50
62583;DHT22;48641;51.676;5.808;2023-02-15T18:49:11;14.30;63.40
62583;DHT22;48641;51.676;5.808;2023-02-15T18:51:37;14.30;63.40
62583;DHT22;48641;51.676;5.808;2023-02-15T18:54:10;14.30;63.30
62583;DHT22;48641;51.676;5.808;2023-02-15T18:56:37;14.30;63.30